Osgood, IN

11:03 PM EST dna 17 Január, 2017 (GMT -0500)
ME3271 | | Change Station

Elev 934 ft 39.13 °N, 85.29 °W | Updated 12 minutes ago

Zamračené
Zamračené
43.0 °F
Feels Like 39 °F
N
7.0
Vietor meniaci sa Vietor from ZJZ
Gusts 14.0 mph

Dnes
High -- | Low -- °F
--% Chance of Precip.
Yesterday
High -- | Low -- °F
Precip. -- in
Tlak 30.06 in
Viditeľnosť 10.0 mile
Oblačnost Ojedinelé mraky 1400 ft
Prevažne zamračené 2000 ft
Zamračené 3300 ft
Pocitová teplota 39 °F
Rosný bod 40 °F
Vlhkosť 90%
Rainfall 0.21 in
Výška snehu Not available.
7:57 AM 5:45 PM
Ubúdajúci mesiac, 3. fáza, 67% visible
METAR KBAK 180245Z 23008KT 10SM SCT014 BKN020 OVC033 06/06 A3006 RMK LAST
Tlak 30.06 in
Viditeľnosť 10.0 mile
Oblačnost Ojedinelé mraky 1400 ft
Prevažne zamračené 2000 ft
Zamračené 3300 ft
Pocitová teplota 39 °F
Rosný bod 40 °F
Vlhkosť 90%
Rainfall 0.21 in
Výška snehu Not available.
7:57 AM 5:45 PM
Ubúdajúci mesiac, 3. fáza, 67% visible
METAR KBAK 180245Z 23008KT 10SM SCT014 BKN020 OVC033 06/06 A3006 RMK LAST

Get Your Daily Forecast Email!

Thanks for signing up!

Be on the lookout for a verification email in your inbox.

You'll start receiving the daily forecast at 8 AM.

×

10-Day Weather Forecast

Almanac

Astronómia

Jan. 17, 2017 Východ Západ
Aktuálny čas
Civil Twilight
Nautical Twilight
Astronomical Twilight
Mesiac
Length Of Visible Light
Dĺžka dňa
Tomorrow will be .
, % of the Moon is Illuminated

Today's Extremes

State Highs State Lows

Community

WunderPhotos

Upload Photos

1,962,540 photos uploaded!

WunderBlog® & News

Nearby

Air Quality

  Air Quality AQ Index Pollutant
Not available.

Výska snehu

Station Depth Nad. výška:

Aktivita zemetrasenia

Mesto Distance Mag. Time & Date
Minimum magnitude displayed is 2.5.

Coastal Water Temperatures

Miesto Teplota

Stations

Najbližšie meteo stanice

Station Location Temp Pocitová teplota Rosný bod Vlhkosť Vietor Precip. Elev Cas aktualizacie Type
                   

Watches & Warnings

There are currently no watches in effect.